Addieville, Illinois
Current Conditions -  °F | °C
As of 6:55 AM on Thursday 27 Nov 2014 (Local Time) from KSAR Reporting Station
Overcast Overcast  
Wind Chill: 18°   Ceiling: 1900
Heat Index: 27°   Visibility: 10mi
Dew Point: 24°   Wind: 10mph
Humidity: 86%   Direction: 340°NNW
Pressure: 30.43"   Gusts: NA
Location:  38.39°N, 89.49°W
Report Text: KSAR 271255Z AUTO 34009KT 10SM OVC019 M03/M05 A3043 RMK AO2 T10271047
Loading
Personal Weather Stations






























Interactive Weather Map New forecast layout! Learn more

10-Day Weather Forecast

Advertisements
Track Severe Weather on mobile